Time;durP1;ratioP1;P1;durP2;ratioP2;P2;SDS_P1;SDS_P2;PMS_P1;PMS_P2;Temp;Humidity;BMP_temperature;BMP_pressure;BME280_temperature;BME280_humidity;BME280_pressure;Samples;Min_cycle;Max_cycle;Signal;HPM_P1;HPM_P2
2021/09/08 00:00:13;;;;;;;1.40;0.80;;;;;;;15.76;100.00;100606.81;5029071;28;20535;-57
2021/09/08 00:02:40;;;;;;;0.40;0.30;;;;;;;15.51;100.00;100611.47;5025510;28;20494;-57
2021/09/08 00:05:09;;;;;;;0.40;0.30;;;;;;;15.46;100.00;100602.75;5022079;28;20451;-57
2021/09/08 00:07:37;;;;;;;0.50;0.40;;;;;;;15.39;100.00;100602.16;5025023;28;20452;-57
2021/09/08 00:10:05;;;;;;;0.50;0.50;;;;;;;15.34;100.00;100605.00;5028782;28;20568;-57
2021/09/08 00:12:32;;;;;;;2.27;2.17;;;;;;;15.31;100.00;100607.84;5025656;28;20937;-56
2021/09/08 00:14:59;;;;;;;0.40;0.20;;;;;;;15.30;100.00;100597.19;5021877;28;20479;-55
2021/09/08 00:17:26;;;;;;;0.97;0.97;;;;;;;15.22;100.00;100600.22;5024387;28;20510;-57
2021/09/08 00:19:53;;;;;;;3.23;0.63;;;;;;;15.34;100.00;100599.66;5028538;28;20548;-57
2021/09/08 00:22:20;;;;;;;0.40;0.40;;;;;;;15.25;100.00;100607.25;5026733;28;21059;-56
2021/09/08 00:24:47;;;;;;;0.40;0.20;;;;;;;15.28;100.00;100599.06;5022297;28;20868;-57
2021/09/08 00:27:14;;;;;;;0.53;0.50;;;;;;;15.32;100.00;100597.97;5034843;28;20455;-57
2021/09/08 00:29:41;;;;;;;4.10;0.50;;;;;;;15.20;100.00;100595.84;5021634;28;20514;-57
2021/09/08 00:32:08;;;;;;;0.40;0.30;;;;;;;15.16;100.00;100595.09;5023122;28;20464;-57
2021/09/08 00:34:35;;;;;;;0.40;0.20;;;;;;;15.11;100.00;100589.94;5028390;28;20543;-57
2021/09/08 00:37:02;;;;;;;0.60;0.60;;;;;;;15.23;100.00;100590.38;5027920;28;20452;-58
2021/09/08 00:39:29;;;;;;;0.40;0.20;;;;;;;15.20;100.00;100591.34;5021302;28;20498;-57
2021/09/08 00:41:56;;;;;;;0.40;0.20;;;;;;;15.05;100.00;100584.84;5021655;28;20522;-57
2021/09/08 00:44:25;;;;;;;0.40;0.20;;;;;;;15.21;100.00;100585.06;5027737;28;20511;-57
2021/09/08 00:46:53;;;;;;;0.40;0.30;;;;;;;15.31;100.00;100581.03;5027924;28;20483;-57
2021/09/08 00:49:20;;;;;;;0.70;0.70;;;;;;;15.05;100.00;100584.84;5021980;28;20456;-57
2021/09/08 00:51:47;;;;;;;1.47;1.37;;;;;;;15.04;100.00;100584.91;5021163;28;21059;-57
2021/09/08 00:54:15;;;;;;;3.77;0.57;;;;;;;14.98;100.00;100578.03;5026895;28;20448;-57
2021/09/08 00:56:44;;;;;;;0.57;0.57;;;;;;;14.84;100.00;100571.50;5028053;28;20501;-57
2021/09/08 00:59:11;;;;;;;4.13;1.30;;;;;;;14.85;100.00;100573.25;5023027;28;20447;-57
2021/09/08 01:01:38;;;;;;;5.60;1.13;;;;;;;14.73;100.00;100578.16;5021264;28;20507;-57
2021/09/08 01:04:05;;;;;;;1.27;1.17;;;;;;;14.73;100.00;100580.84;5025673;28;20492;-57
2021/09/08 01:06:33;;;;;;;2.20;1.83;;;;;;;14.84;100.00;100577.72;5026927;28;20455;-58
2021/09/08 01:09:03;;;;;;;0.40;0.40;;;;;;;14.66;100.00;100573.97;5023826;28;20451;-57
2021/09/08 01:11:30;;;;;;;0.50;0.30;;;;;;;14.69;100.00;100567.66;5020604;28;20471;-57
2021/09/08 01:13:56;;;;;;;1.70;1.17;;;;;;;14.64;100.00;100569.63;5024583;28;20566;-57
2021/09/08 01:16:23;;;;;;;0.80;0.80;;;;;;;14.80;100.00;100568.97;5027402;28;20449;-57
2021/09/08 01:18:50;;;;;;;2.20;2.10;;;;;;;14.68;100.00;100571.25;5025048;28;20451;-57
2021/09/08 01:21:17;;;;;;;1.13;0.50;;;;;;;14.64;100.00;100569.63;5019934;28;20475;-56
2021/09/08 01:23:44;;;;;;;0.57;0.57;;;;;;;14.67;100.00;100569.53;5024486;28;20899;-57
2021/09/08 01:26:11;;;;;;;0.40;0.20;;;;;;;14.57;100.00;100557.44;5029707;28;20487;-57
2021/09/08 01:28:38;;;;;;;0.40;0.20;;;;;;;14.53;100.00;100559.38;5024232;28;21020;-57
2021/09/08 01:31:06;;;;;;;0.50;0.40;;;;;;;14.67;100.00;100558.81;5027519;28;20488;-57
2021/09/08 01:33:34;;;;;;;1.73;0.87;;;;;;;14.58;100.00;100549.34;5024270;28;20873;-57
2021/09/08 01:36:02;;;;;;;0.40;0.30;;;;;;;14.65;100.00;100547.28;5020629;28;20885;-57
2021/09/08 01:38:29;;;;;;;0.40;0.20;;;;;;;14.62;100.00;100555.44;5023036;28;20481;-57
2021/09/08 01:40:56;;;;;;;0.50;0.40;;;;;;;14.58;100.00;100545.81;5027037;28;20790;-57
2021/09/08 01:43:24;;;;;;;0.40;0.20;;;;;;;14.61;100.00;100551.91;5024679;28;20491;-57
2021/09/08 01:45:52;;;;;;;0.53;0.53;;;;;;;14.45;100.00;100548.13;5018211;28;20479;-57
2021/09/08 01:48:19;;;;;;;0.77;0.77;;;;;;;14.36;100.00;100553.78;5022360;28;20526;-57
2021/09/08 01:50:47;;;;;;;0.40;0.20;;;;;;;14.37;100.00;100544.81;5025614;28;20452;-57
2021/09/08 01:53:14;;;;;;;7.70;2.00;;;;;;;14.39;100.00;100538.50;5025466;28;20495;-57
2021/09/08 01:55:41;;;;;;;0.40;0.20;;;;;;;14.26;100.00;100528.38;5019843;28;20509;-57
2021/09/08 01:58:08;;;;;;;0.83;0.83;;;;;;;14.23;100.00;100532.88;5021821;28;20487;-57
2021/09/08 02:00:35;;;;;;;0.80;0.80;;;;;;;14.39;100.00;100529.59;5026732;28;20453;-57
2021/09/08 02:03:02;;;;;;;0.40;0.20;;;;;;;14.28;100.00;100534.53;5024968;28;20575;-57
2021/09/08 02:05:29;;;;;;;0.60;0.40;;;;;;;14.42;100.00;100533.03;5019664;28;20451;-57
2021/09/08 02:07:56;;;;;;;0.40;0.20;;;;;;;14.27;100.00;100530.09;5021457;28;20871;-57
2021/09/08 02:10:23;;;;;;;0.40;0.20;;;;;;;14.16;100.00;100535.88;5026412;28;20923;-57
2021/09/08 02:12:50;;;;;;;3.50;1.03;;;;;;;14.21;100.00;100528.53;5025913;28;20468;-57
2021/09/08 02:15:17;;;;;;;0.50;0.50;;;;;;;14.23;100.00;100535.56;5019572;28;20502;-57
2021/09/08 02:17:44;;;;;;;0.93;0.93;;;;;;;14.03;100.00;100518.56;5019985;28;20518;-57
2021/09/08 02:20:12;;;;;;;0.73;0.60;;;;;;;13.96;100.00;100525.94;5025510;28;20862;-57
2021/09/08 02:22:39;;;;;;;0.40;0.20;;;;;;;14.26;100.00;100526.56;5025155;28;20927;-57
2021/09/08 02:25:06;;;;;;;0.70;0.70;;;;;;;13.97;100.00;100521.47;5020830;28;20991;-57
2021/09/08 02:27:33;;;;;;;0.40;0.30;;;;;;;14.04;100.00;100526.53;5031351;28;20459;-57
2021/09/08 02:30:00;;;;;;;0.40;0.30;;;;;;;14.03;100.00;100531.94;5021257;28;20892;-57
2021/09/08 02:32:27;;;;;;;0.40;0.20;;;;;;;13.99;100.00;100530.31;5019142;28;20591;-57
2021/09/08 02:34:54;;;;;;;0.40;0.20;;;;;;;13.86;100.00;100529.91;5024565;28;20459;-57
2021/09/08 02:37:21;;;;;;;25.67;2.00;;;;;;;13.93;100.00;100534.94;5025855;28;20725;-57
2021/09/08 02:39:48;;;;;;;0.40;0.30;;;;;;;13.75;100.00;100537.47;5021326;28;20483;-57
2021/09/08 02:42:15;;;;;;;0.40;0.20;;;;;;;13.85;100.00;100533.53;5019029;28;21071;-57
2021/09/08 02:44:43;;;;;;;0.77;0.77;;;;;;;14.01;100.00;100532.00;5022704;28;20873;-57
2021/09/08 02:47:13;;;;;;;0.40;0.20;;;;;;;13.78;100.00;100530.19;5025937;28;20472;-57
2021/09/08 02:49:40;;;;;;;0.40;0.30;;;;;;;13.73;100.00;100526.84;5022618;28;20486;-57
2021/09/08 02:52:07;;;;;;;2.97;2.23;;;;;;;13.85;100.00;100522.84;5019222;28;21008;-57
2021/09/08 02:54:35;;;;;;;0.60;0.50;;;;;;;13.83;100.00;100530.88;5022534;28;20472;-57
2021/09/08 02:57:02;;;;;;;0.40;0.20;;;;;;;13.81;100.00;100527.41;5025808;28;20773;-56
2021/09/08 02:59:29;;;;;;;0.63;0.60;;;;;;;14.00;100.00;100526.72;5023294;28;20452;-57
2021/09/08 03:01:56;;;;;;;0.40;0.40;;;;;;;14.03;100.00;100518.56;5018775;28;20483;-57
2021/09/08 03:04:23;;;;;;;0.40;0.20;;;;;;;13.98;100.00;100525.88;5021131;28;20492;-57
2021/09/08 03:06:50;;;;;;;0.60;0.60;;;;;;;14.10;100.00;100523.59;5025547;28;20448;-57
2021/09/08 03:09:17;;;;;;;1.70;1.70;;;;;;;13.98;100.00;100521.44;5023996;28;20517;-57
2021/09/08 03:11:44;;;;;;;0.40;0.20;;;;;;;13.85;100.00;100522.84;5018910;28;20573;-57
2021/09/08 03:14:11;;;;;;;0.97;0.97;;;;;;;13.77;100.00;100522.25;5020188;28;20476;-57
2021/09/08 03:16:38;;;;;;;0.40;0.40;;;;;;;13.68;100.00;100522.56;5025511;28;21012;-57
2021/09/08 03:19:05;;;;;;;0.47;0.47;;;;;;;13.56;100.00;100530.13;5024640;28;20831;-57
2021/09/08 03:21:31;;;;;;;1.03;0.93;;;;;;;13.44;100.00;100519.91;5018299;28;20467;-57
2021/09/08 03:23:58;;;;;;;0.47;0.43;;;;;;;13.48;100.00;100515.31;5020483;28;20527;-57
2021/09/08 03:26:25;;;;;;;0.40;0.30;;;;;;;13.44;100.00;100514.56;5030102;28;20464;-57
2021/09/08 03:28:52;;;;;;;0.40;0.20;;;;;;;13.41;100.00;100503.97;5020254;28;20484;-57
2021/09/08 03:31:19;;;;;;;1.37;0.83;;;;;;;13.16;100.00;100511.13;5028905;28;20472;-57
2021/09/08 03:33:46;;;;;;;1.13;0.60;;;;;;;13.12;100.00;100509.47;5028513;28;20443;-57
2021/09/08 03:36:13;;;;;;;1.47;1.30;;;;;;;13.38;100.00;100506.78;5022794;28;20822;-57
2021/09/08 03:38:40;;;;;;;0.53;0.53;;;;;;;13.23;100.00;100500.19;5024445;28;20965;-57
2021/09/08 03:41:07;;;;;;;1.37;0.73;;;;;;;13.24;100.00;100507.28;5029528;28;20483;-56
2021/09/08 03:43:34;;;;;;;0.40;0.20;;;;;;;13.28;100.00;100508.03;5028691;28;20987;-56
2021/09/08 03:46:04;;;;;;;0.40;0.20;;;;;;;13.36;100.00;100507.75;5028613;28;20503;-56
2021/09/08 03:48:32;;;;;;;0.43;0.37;;;;;;;13.24;100.00;100501.06;5029525;28;20448;-56
2021/09/08 03:50:59;;;;;;;1.97;1.97;;;;;;;13.39;100.00;100504.97;5023042;28;20960;-56
2021/09/08 03:53:26;;;;;;;1.90;1.17;;;;;;;13.42;100.00;100500.38;5022282;28;20476;-56
2021/09/08 03:55:53;;;;;;;0.60;0.50;;;;;;;13.32;100.00;100510.53;5028993;28;20482;-56
2021/09/08 03:58:20;;;;;;;1.57;0.67;;;;;;;13.18;100.00;100502.16;5029114;28;20521;-56
2021/09/08 04:00:47;;;;;;;0.80;0.80;;;;;;;13.20;100.00;100508.31;5023385;28;20995;-56
2021/09/08 04:03:14;;;;;;;0.50;0.50;;;;;;;13.05;100.00;100504.38;5022266;28;20500;-56
2021/09/08 04:05:41;;;;;;;0.40;0.30;;;;;;;13.11;100.00;100502.38;5027864;28;20452;-56
2021/09/08 04:08:08;;;;;;;0.40;0.20;;;;;;;13.07;100.00;100501.63;5028777;28;20455;-56
2021/09/08 04:10:35;;;;;;;0.50;0.47;;;;;;;13.12;100.00;100504.13;5024109;28;20517;-57
2021/09/08 04:13:03;;;;;;;0.70;0.70;;;;;;;13.10;100.00;100490.84;5022946;28;20480;-57
2021/09/08 04:15:30;;;;;;;0.40;0.20;;;;;;;13.11;100.00;100502.38;5012841;28;20452;-56
2021/09/08 04:17:58;;;;;;;0.50;0.50;;;;;;;13.09;100.00;100502.44;5028701;28;20487;-57
2021/09/08 04:20:25;;;;;;;0.40;0.20;;;;;;;13.01;100.00;100492.03;5015644;28;20480;-57
2021/09/08 04:22:52;;;;;;;0.50;0.40;;;;;;;12.96;100.00;100491.34;5028666;28;20472;-57
2021/09/08 04:25:19;;;;;;;0.40;0.30;;;;;;;13.07;100.00;100493.63;5024463;28;20940;-57
2021/09/08 04:27:46;;;;;;;0.50;0.43;;;;;;;13.14;100.00;100491.59;5032010;28;20516;-57
2021/09/08 04:30:13;;;;;;;0.57;0.57;;;;;;;13.11;100.00;100495.25;5024840;28;20490;-57
2021/09/08 04:32:40;;;;;;;0.40;0.20;;;;;;;13.18;100.00;100488.81;5021528;28;20529;-57
2021/09/08 04:35:07;;;;;;;0.40;0.20;;;;;;;13.26;100.00;100484.06;5025920;28;20476;-57
2021/09/08 04:37:36;;;;;;;0.40;0.20;;;;;;;13.11;100.00;100473.91;5028328;28;20444;-57
2021/09/08 04:40:05;;;;;;;19.87;1.23;;;;;;;13.04;100.00;100486.59;5025566;28;20447;-57
2021/09/08 04:42:32;;;;;;;0.40;0.40;;;;;;;13.13;100.00;100484.53;5018871;28;20472;-57
2021/09/08 04:44:59;;;;;;;0.40;0.20;;;;;;;12.97;100.00;100486.88;5022200;28;20527;-57
2021/09/08 04:47:26;;;;;;;0.60;0.60;;;;;;;12.90;100.00;100488.03;5028037;28;20452;-57
2021/09/08 04:49:53;;;;;;;0.93;0.93;;;;;;;12.91;100.00;100487.97;5025885;28;20872;-57
2021/09/08 04:52:20;;;;;;;0.40;0.30;;;;;;;12.89;100.00;100483.63;5016977;28;21158;-57
2021/09/08 04:54:47;;;;;;;0.40;0.20;;;;;;;13.01;100.00;100499.16;5015088;28;20495;-57
2021/09/08 04:57:13;;;;;;;0.50;0.40;;;;;;;13.13;100.00;100501.41;5027924;28;20507;-57
2021/09/08 04:59:40;;;;;;;0.40;0.30;;;;;;;13.23;100.00;100494.84;5026233;28;20463;-57
2021/09/08 05:02:07;;;;;;;0.40;0.20;;;;;;;13.05;100.00;100507.03;5043543;23;20924;-51
2021/09/08 05:04:34;;;;;;;0.60;0.60;;;;;;;13.04;100.00;100509.75;5054450;28;20493;-50
2021/09/08 05:07:01;;;;;;;0.53;0.53;;;;;;;13.21;100.00;100509.19;5054560;28;20472;-52
2021/09/08 05:09:29;;;;;;;0.40;0.30;;;;;;;13.06;100.00;100515.91;5054167;28;20487;-51
2021/09/08 05:11:56;;;;;;;0.40;0.20;;;;;;;12.99;100.00;100504.56;5053894;28;21037;-51
2021/09/08 05:14:23;;;;;;;0.60;0.60;;;;;;;13.03;100.00;100503.56;5054083;28;20501;-51
2021/09/08 05:16:49;;;;;;;0.40;0.30;;;;;;;13.16;100.00;100503.13;5054166;28;20451;-51
2021/09/08 05:19:16;;;;;;;0.40;0.30;;;;;;;13.29;100.00;100499.97;5053997;28;20493;-51
2021/09/08 05:21:43;;;;;;;0.40;0.20;;;;;;;13.66;100.00;100498.59;5053952;28;20497;-51
2021/09/08 05:24:10;;;;;;;0.70;0.70;;;;;;;13.98;100.00;100507.16;5036379;28;21023;-52
2021/09/08 05:26:37;;;;;;;0.40;0.20;;;;;;;14.11;100.00;100490.59;5034214;28;20503;-52
2021/09/08 05:29:04;;;;;;;0.40;0.20;;;;;;;14.17;100.00;100501.06;5047559;28;20455;-51
2021/09/08 05:31:31;;;;;;;1.53;0.60;;;;;;;14.29;100.00;100501.50;5053919;28;20516;-52
2021/09/08 05:33:58;;;;;;;1.57;1.57;;;;;;;14.36;100.00;100495.81;5053726;28;20482;-52
2021/09/08 05:36:25;;;;;;;1.83;1.73;;;;;;;14.61;100.00;100495.72;5053809;28;20528;-52
2021/09/08 05:38:52;;;;;;;0.40;0.20;;;;;;;14.56;100.00;100489.69;5053951;28;20528;-52
2021/09/08 05:41:19;;;;;;;1.60;1.60;;;;;;;14.62;100.00;100494.78;5053728;28;20827;-52
2021/09/08 05:43:45;;;;;;;1.80;0.67;;;;;;;14.77;100.00;100485.22;5053501;28;20498;-51
2021/09/08 05:46:12;;;;;;;3.63;1.67;;;;;;;14.68;100.00;100497.22;5053610;28;20447;-51
2021/09/08 05:48:39;;;;;;;0.40;0.20;;;;;;;14.64;100.00;100492.03;5036181;28;20447;-51
2021/09/08 05:51:06;;;;;;;0.83;0.83;;;;;;;14.58;100.00;100495.84;5053823;28;20497;-51
2021/09/08 05:53:33;;;;;;;1.17;1.07;;;;;;;14.67;100.00;100491.94;5053113;28;20495;-52
2021/09/08 05:56:00;;;;;;;0.40;0.30;;;;;;;14.76;100.00;100492.38;5053776;28;20482;-52
2021/09/08 05:58:27;;;;;;;0.40;0.30;;;;;;;14.74;100.00;100490.72;5053373;28;20500;-52
2021/09/08 06:00:54;;;;;;;0.40;0.20;;;;;;;14.86;100.00;100492.00;5053296;28;20504;-51
2021/09/08 06:03:21;;;;;;;0.40;0.20;;;;;;;14.74;100.00;100488.91;5053103;28;20479;-51
2021/09/08 06:05:50;;;;;;;0.40;0.20;;;;;;;14.81;100.00;100489.53;5053228;28;20450;-52
2021/09/08 06:08:17;;;;;;;1.13;1.03;;;;;;;14.92;100.00;100489.91;5053464;28;20446;-53
2021/09/08 06:10:44;;;;;;;0.40;0.20;;;;;;;14.92;100.00;100487.25;5053233;28;20446;-52
2021/09/08 06:13:11;;;;;;;0.60;0.60;;;;;;;14.89;100.00;100494.53;5052862;28;20478;-52
2021/09/08 06:15:38;;;;;;;0.63;0.50;;;;;;;15.02;100.00;100490.41;5049721;28;20464;-52
2021/09/08 06:18:06;;;;;;;3.13;1.23;;;;;;;15.13;100.00;100489.94;5034969;28;20458;-52
2021/09/08 06:20:33;;;;;;;0.40;0.20;;;;;;;15.09;100.00;100491.88;5053176;28;20481;-51
2021/09/08 06:23:00;;;;;;;0.97;0.47;;;;;;;15.09;100.00;100498.13;5052707;28;20462;-51
2021/09/08 06:25:28;;;;;;;1.83;1.37;;;;;;;15.26;100.00;100492.00;5052783;28;20518;-52
2021/09/08 06:27:55;;;;;;;0.40;0.20;;;;;;;15.36;100.00;100497.84;5052558;28;20516;-51
2021/09/08 06:30:22;;;;;;;0.40;0.20;;;;;;;15.63;100.00;100491.25;5052851;28;20512;-51
2021/09/08 06:32:49;;;;;;;2.70;2.53;;;;;;;15.45;100.00;100486.69;5052705;28;20467;-52
2021/09/08 06:35:16;;;;;;;0.40;0.20;;;;;;;15.66;100.00;100491.09;5052824;28;20494;-51
2021/09/08 06:37:43;;;;;;;3.40;1.33;;;;;;;15.84;100.00;100489.34;5052835;28;20762;-52
2021/09/08 06:40:11;;;;;;;0.40;0.30;;;;;;;15.88;100.00;100482.03;5052683;28;20873;-51
2021/09/08 06:42:38;;;;;;;0.40;0.30;;;;;;;15.97;100.00;100484.28;5052307;28;20502;-52
2021/09/08 06:45:20;;;;;;;0.87;0.87;;;;;;;15.88;100.00;100480.22;5052473;28;20486;-51
2021/09/08 06:47:47;;;;;;;0.40;0.33;;;;;;;15.98;100.00;100480.66;5052490;28;20801;-52
2021/09/08 06:50:14;;;;;;;0.70;0.70;;;;;;;16.12;100.00;100477.31;5052253;28;20446;-51
2021/09/08 06:52:41;;;;;;;1.40;1.30;;;;;;;15.95;100.00;100475.47;5051988;28;20474;-51
2021/09/08 06:55:08;;;;;;;0.40;0.20;;;;;;;15.98;100.00;100476.16;5052291;28;20513;-52
2021/09/08 06:57:36;;;;;;;0.50;0.40;;;;;;;16.16;100.00;100482.44;5052474;28;20482;-52
2021/09/08 07:00:04;;;;;;;1.37;1.13;;;;;;;16.23;100.00;100478.53;5052336;28;20485;-51
2021/09/08 07:02:31;;;;;;;1.40;1.40;;;;;;;16.80;100.00;100465.00;5052285;28;20482;-52
2021/09/08 07:04:58;;;;;;;4.10;2.10;;;;;;;16.64;100.00;100474.75;5051675;28;20482;-51
2021/09/08 07:07:25;;;;;;;0.40;0.20;;;;;;;16.92;100.00;100480.47;5052482;28;20500;-51
2021/09/08 07:09:52;;;;;;;0.50;0.47;;;;;;;17.02;100.00;100476.38;5052556;28;20451;-52
2021/09/08 07:12:19;;;;;;;0.40;0.40;;;;;;;17.05;100.00;100468.16;5052131;28;20520;-52
2021/09/08 07:14:46;;;;;;;0.90;0.90;;;;;;;17.35;100.00;100464.78;5052487;28;20506;-52
2021/09/08 07:17:13;;;;;;;10.63;3.63;;;;;;;17.24;100.00;100465.34;5052532;28;20459;-51
2021/09/08 07:19:39;;;;;;;0.40;0.20;;;;;;;17.56;100.00;100463.63;5052544;28;20482;-51
2021/09/08 07:22:07;;;;;;;0.97;0.90;;;;;;;17.61;100.00;100464.22;5052248;28;20478;-52
2021/09/08 07:24:34;;;;;;;0.50;0.40;;;;;;;17.94;99.71;100463.34;5052785;28;20548;-52
2021/09/08 07:27:02;;;;;;;0.40;0.30;;;;;;;17.93;99.34;100461.59;5034567;28;20998;-52
2021/09/08 07:29:29;;;;;;;0.50;0.30;;;;;;;17.70;100.00;100455.72;5052084;28;20474;-52
2021/09/08 07:31:57;;;;;;;1.90;1.73;;;;;;;18.03;99.41;100461.00;5052210;28;20893;-52
2021/09/08 07:34:25;;;;;;;2.30;2.20;;;;;;;18.13;98.57;100466.75;5052286;28;20474;-51
2021/09/08 07:36:52;;;;;;;1.00;0.97;;;;;;;18.56;97.91;100462.44;5052393;28;20458;-53
2021/09/08 07:39:19;;;;;;;1.47;1.37;;;;;;;18.47;97.98;100462.94;5052077;28;20493;-51
2021/09/08 07:41:46;;;;;;;5.43;1.13;;;;;;;18.79;96.83;100462.94;5052028;28;20466;-52
2021/09/08 07:44:13;;;;;;;3.13;1.47;;;;;;;18.70;96.83;100469.72;5051765;28;20491;-52
2021/09/08 07:46:40;;;;;;;0.40;0.30;;;;;;;18.73;97.92;100471.34;5052104;28;21021;-52
2021/09/08 07:49:07;;;;;;;2.40;1.90;;;;;;;19.11;96.73;100455.59;5051695;28;20954;-52
2021/09/08 07:51:34;;;;;;;0.53;0.50;;;;;;;19.00;96.20;100453.53;5034417;28;20501;-52
2021/09/08 07:54:01;;;;;;;0.40;0.30;;;;;;;19.40;95.84;100454.66;5051652;28;20891;-52
2021/09/08 07:56:28;;;;;;;7.03;1.13;;;;;;;19.43;94.67;100451.75;5052068;28;20450;-52
2021/09/08 07:58:55;;;;;;;0.40;0.20;;;;;;;19.71;93.88;100450.91;5051672;28;20927;-52
2021/09/08 08:01:22;;;;;;;5.10;3.07;;;;;;;19.80;93.31;100446.75;5051642;28;20505;-52
2021/09/08 08:03:49;;;;;;;1.77;1.77;;;;;;;19.63;94.64;100455.06;5051835;28;20478;-52
2021/09/08 08:06:16;;;;;;;1.90;0.67;;;;;;;19.72;94.81;100444.53;5052909;28;20798;-52
2021/09/08 08:08:43;;;;;;;0.47;0.30;;;;;;;19.87;94.54;100447.22;5051572;28;20489;-52
2021/09/08 08:11:10;;;;;;;0.67;0.67;;;;;;;20.13;93.91;100449.09;5051645;28;20450;-52
2021/09/08 08:13:37;;;;;;;0.50;0.50;;;;;;;20.48;93.24;100444.09;5051562;28;20835;-52
2021/09/08 08:16:08;;;;;;;1.33;1.23;;;;;;;20.65;92.13;100445.66;5052833;28;20462;-52
2021/09/08 08:18:34;;;;;;;1.70;1.60;;;;;;;20.49;92.33;100444.97;5055343;28;20952;-52
2021/09/08 08:21:01;;;;;;;4.23;1.03;;;;;;;20.48;92.08;100438.69;5055193;28;20479;-51
2021/09/08 08:23:28;;;;;;;1.37;1.27;;;;;;;20.52;93.04;100436.66;5055344;28;20889;-52
2021/09/08 08:25:55;;;;;;;1.03;1.03;;;;;;;20.89;92.13;100427.75;5054974;28;20498;-53
2021/09/08 08:28:22;;;;;;;0.50;0.40;;;;;;;20.81;90.79;100429.25;5055280;28;20454;-53
2021/09/08 08:30:51;;;;;;;1.33;1.23;;;;;;;20.97;90.05;100436.22;5055074;28;20512;-52
2021/09/08 08:33:19;;;;;;;0.40;0.30;;;;;;;21.30;88.70;100426.72;5055258;28;20470;-52
2021/09/08 08:35:46;;;;;;;0.67;0.67;;;;;;;21.50;88.19;100430.72;5055140;28;20482;-52
2021/09/08 08:38:13;;;;;;;0.67;0.67;;;;;;;21.61;87.12;100430.81;5054976;28;21056;-52
2021/09/08 08:40:40;;;;;;;0.60;0.53;;;;;;;21.63;87.07;100430.69;5054820;28;20538;-52
2021/09/08 08:43:07;;;;;;;0.60;0.57;;;;;;;21.69;85.93;100425.72;5037692;28;20462;-52
2021/09/08 08:45:34;;;;;;;1.70;0.57;;;;;;;21.71;86.02;100417.47;5054790;28;20565;-52
2021/09/08 08:48:01;;;;;;;0.40;0.30;;;;;;;21.87;85.95;100415.38;5055120;28;20478;-53
2021/09/08 08:50:28;;;;;;;0.67;0.67;;;;;;;21.80;84.56;100411.41;5054864;28;20459;-51
2021/09/08 08:52:57;;;;;;;9.00;2.47;;;;;;;22.10;84.38;100416.44;5055657;28;20471;-52
2021/09/08 08:55:26;;;;;;;0.40;0.20;;;;;;;22.23;83.75;100413.69;5055661;28;20463;-53
2021/09/08 08:57:53;;;;;;;0.63;0.63;;;;;;;21.98;84.06;100411.88;5037634;28;20467;-53
2021/09/08 09:00:22;;;;;;;0.50;0.30;;;;;;;22.18;83.59;100412.16;5054902;28;20481;-52
2021/09/08 09:02:51;;;;;;;4.10;1.00;;;;;;;22.24;83.32;100401.84;5054521;28;20478;-53
2021/09/08 09:05:39;;;;;;;0.50;0.50;;;;;;;22.51;83.07;100404.31;5054273;28;20491;-53
2021/09/08 09:08:09;;;;;;;0.40;0.20;;;;;;;22.68;81.82;100395.75;5054436;28;20457;-52
2021/09/08 09:10:38;;;;;;;2.10;1.53;;;;;;;22.87;81.29;100397.91;5036759;28;20516;-53
2021/09/08 09:13:07;;;;;;;0.83;0.83;;;;;;;22.88;81.37;100396.94;5054305;28;20479;-52
2021/09/08 09:15:35;;;;;;;0.40;0.30;;;;;;;22.86;78.51;100388.91;5054185;28;20453;-52
2021/09/08 09:18:02;;;;;;;0.70;0.53;;;;;;;22.96;77.79;100383.66;5054254;28;20450;-53
2021/09/08 09:20:31;;;;;;;0.50;0.37;;;;;;;23.07;77.51;100391.81;5054463;28;20509;-52
2021/09/08 09:23:02;;;;;;;1.67;1.47;;;;;;;22.93;77.84;100382.06;5054410;28;20526;-52
2021/09/08 09:25:36;;;;;;;0.80;0.70;;;;;;;23.19;78.00;100381.84;5054266;28;20993;-53
2021/09/08 09:28:07;;;;;;;1.17;1.17;;;;;;;23.26;75.92;100381.22;5053127;28;20450;-53
2021/09/08 09:30:41;;;;;;;2.60;2.40;;;;;;;23.17;76.28;100371.13;5054570;28;20503;-52
2021/09/08 09:33:30;;;;;;;0.63;0.63;;;;;;;23.43;75.58;100376.28;5039073;28;20489;-52
2021/09/08 09:36:12;;;;;;;0.50;0.47;;;;;;;23.53;74.95;100366.41;5054082;28;20450;-53
2021/09/08 09:38:41;;;;;;;0.47;0.30;;;;;;;23.84;73.96;100362.06;5036343;28;20477;-52
2021/09/08 09:41:10;;;;;;;0.50;0.50;;;;;;;23.95;72.70;100362.03;5053717;28;21005;-52
2021/09/08 09:43:41;;;;;;;8.83;2.00;;;;;;;23.85;70.78;100367.41;5054195;28;20446;-51
2021/09/08 09:46:08;;;;;;;0.77;0.77;;;;;;;24.00;71.43;100357.13;5034194;28;20995;-52
2021/09/08 09:48:37;;;;;;;0.80;0.80;;;;;;;23.67;71.25;100352.59;5047727;28;20459;-52
2021/09/08 09:51:05;;;;;;;0.50;0.40;;;;;;;23.94;72.48;100349.47;5053733;28;20450;-52
2021/09/08 09:53:32;;;;;;;0.60;0.60;;;;;;;23.85;72.16;100353.81;5035992;28;20467;-52
2021/09/08 09:55:59;;;;;;;5.03;1.43;;;;;;;24.00;71.44;100362.56;5035960;28;20516;-52
2021/09/08 09:58:27;;;;;;;0.60;0.57;;;;;;;24.30;71.78;100345.56;5053215;28;20528;-52
2021/09/08 10:00:54;;;;;;;0.83;0.83;;;;;;;24.09;70.04;100352.75;5053388;28;20447;-52
2021/09/08 10:03:22;;;;;;;0.70;0.70;;;;;;;24.21;69.99;100340.84;5053045;28;20475;-52
2021/09/08 10:05:49;;;;;;;0.77;0.77;;;;;;;24.41;70.21;100340.06;5053265;28;20501;-53
2021/09/08 10:08:21;;;;;;;3.50;2.57;;;;;;;24.36;69.58;100331.44;5053355;28;20451;-52
2021/09/08 10:10:51;;;;;;;0.50;0.33;;;;;;;24.11;69.21;100338.03;5035549;28;20428;-52
2021/09/08 10:13:23;;;;;;;0.83;0.83;;;;;;;24.32;69.83;100329.97;5053169;28;20478;-52
2021/09/08 10:15:53;;;;;;;4.97;2.73;;;;;;;24.54;68.45;100325.44;5042762;28;20972;-53
2021/09/08 10:18:25;;;;;;;1.53;1.43;;;;;;;24.65;65.58;100330.78;5051476;28;20469;-52
2021/09/08 10:20:59;;;;;;;0.40;0.20;;;;;;;24.63;66.52;100319.19;5035695;28;20474;-53
2021/09/08 10:23:26;;;;;;;0.50;0.30;;;;;;;24.77;66.28;100313.41;5040110;28;20470;-53
2021/09/08 10:25:56;;;;;;;3.47;2.57;;;;;;;24.75;66.33;100318.97;5053093;28;20490;-52
2021/09/08 10:28:26;;;;;;;0.70;0.30;;;;;;;24.62;66.99;100312.00;5053176;28;20912;-52
2021/09/08 10:30:54;;;;;;;0.50;0.33;;;;;;;24.97;64.64;100306.22;5053038;28;20447;-52
2021/09/08 10:33:21;;;;;;;1.10;1.10;;;;;;;25.24;64.43;100302.94;5053044;28;20477;-53
2021/09/08 10:35:49;;;;;;;0.97;0.97;;;;;;;24.82;64.97;100297.56;5052650;28;20483;-53
2021/09/08 10:38:23;;;;;;;0.93;0.77;;;;;;;25.00;64.73;100300.50;5053023;28;20482;-52
2021/09/08 10:40:51;;;;;;;0.80;0.80;;;;;;;24.86;65.32;100293.56;5052777;28;20474;-52
2021/09/08 10:43:30;;;;;;;1.73;0.67;;;;;;;24.66;65.18;100281.69;5052620;28;20979;-53
2021/09/08 10:45:56;;;;;;;0.60;0.50;;;;;;;24.75;65.56;100280.03;5051712;28;20552;-52
2021/09/08 10:48:39;;;;;;;0.50;0.50;;;;;;;25.27;65.09;100280.88;5052459;28;20451;-53
2021/09/08 10:51:08;;;;;;;0.50;0.40;;;;;;;25.24;64.74;100276.59;5034881;28;20456;-53
2021/09/08 10:53:37;;;;;;;1.00;1.00;;;;;;;25.41;64.49;100269.59;5051838;28;20441;-53
2021/09/08 10:56:06;;;;;;;1.00;0.77;;;;;;;25.27;63.95;100275.44;5052748;28;20458;-53
2021/09/08 10:58:54;;;;;;;2.60;1.07;;;;;;;24.94;64.18;100261.09;5052385;28;20472;-52
2021/09/08 11:01:22;;;;;;;0.77;0.77;;;;;;;25.31;64.24;100274.16;5052315;28;20447;-52
2021/09/08 11:03:51;;;;;;;0.70;0.70;;;;;;;24.99;63.79;100274.31;5050377;23;20918;-52
2021/09/08 11:06:34;;;;;;;1.07;1.07;;;;;;;25.32;63.96;100254.97;5032777;28;20841;-52
2021/09/08 11:09:03;;;;;;;0.50;0.47;;;;;;;25.17;63.94;100255.50;5003520;28;20559;-52
2021/09/08 11:11:30;;;;;;;0.47;0.33;;;;;;;25.12;64.75;100246.91;5032145;28;20509;-52
2021/09/08 11:13:57;;;;;;;1.67;1.47;;;;;;;25.42;64.12;100251.41;5032238;28;20467;-52
2021/09/08 11:16:32;;;;;;;0.50;0.40;;;;;;;25.50;63.60;100241.56;5032096;28;20455;-54
2021/09/08 11:19:02;;;;;;;2.00;1.90;;;;;;;25.54;64.38;100248.44;5032454;28;20530;-52
2021/09/08 11:21:33;;;;;;;4.33;2.60;;;;;;;25.84;64.01;100252.09;5014713;28;20482;-52